createdAt,value
2022-11-05T00:02:50.467Z,5.13
2022-11-05T00:05:35.893Z,5.60
2022-11-05T00:08:23.337Z,6.28
2022-11-05T00:10:51.169Z,5.57
2022-11-05T00:13:36.639Z,5.07
2022-11-05T00:16:36.259Z,4.50
2022-11-05T00:19:10.299Z,4.25
2022-11-05T00:22:03.996Z,5.05
2022-11-05T00:24:50.564Z,6.10
2022-11-05T00:27:18.289Z,8.35
2022-11-05T00:29:46.035Z,9.38
2022-11-05T00:32:14.124Z,4.90
2022-11-05T00:34:41.806Z,3.65
2022-11-05T00:37:09.506Z,5.30
2022-11-05T00:39:38.881Z,6.15
2022-11-05T00:42:23.993Z,5.22
2022-11-05T00:45:01.730Z,3.83
2022-11-05T00:47:46.847Z,6.72
2022-11-05T00:50:15.001Z,4.35
2022-11-05T00:52:57.986Z,5.35
2022-11-05T00:55:30.262Z,6.25
2022-11-05T00:57:58.778Z,3.83
2022-11-05T01:00:28.678Z,3.78
2022-11-05T01:02:59.789Z,4.13
2022-11-05T01:05:28.871Z,5.65
2022-11-05T01:07:56.793Z,3.50
2022-11-05T01:10:24.883Z,6.45
2022-11-05T01:12:54.324Z,4.88
2022-11-05T01:15:22.751Z,9.70
2022-11-05T01:17:51.867Z,6.07
2022-11-05T01:20:19.779Z,6.70
2022-11-05T01:22:47.677Z,6.35
2022-11-05T01:25:15.825Z,6.40
2022-11-05T01:27:43.816Z,4.78
2022-11-05T01:30:14.046Z,4.75
2022-11-05T01:32:41.969Z,7.45
2022-11-05T01:35:13.298Z,6.07
2022-11-05T01:37:40.999Z,7.88
2022-11-05T01:40:11.575Z,8.02
2022-11-05T01:42:39.200Z,4.10
2022-11-05T01:45:16.863Z,7.05
2022-11-05T01:47:53.213Z,6.65
2022-11-05T01:50:28.191Z,6.38
2022-11-05T01:53:01.656Z,7.55
2022-11-05T01:55:34.945Z,8.50
2022-11-05T01:58:03.737Z,8.10
2022-11-05T02:00:32.819Z,9.13
2022-11-05T02:03:01.174Z,12.10
2022-11-05T02:05:29.503Z,7.68
2022-11-05T02:07:57.734Z,8.32
2022-11-05T02:10:25.639Z,8.82
2022-11-05T02:12:53.365Z,11.60
2022-11-05T02:15:27.891Z,10.95
2022-11-05T02:18:12.145Z,13.02
2022-11-05T02:20:51.977Z,12.00
2022-11-05T02:23:47.727Z,13.82
2022-11-05T02:26:53.900Z,15.70
2022-11-05T02:29:58.500Z,11.75
2022-11-05T02:32:39.164Z,11.10
2022-11-05T02:35:16.991Z,11.57
2022-11-05T02:37:50.607Z,14.55
2022-11-05T02:40:26.627Z,13.15
2022-11-05T02:43:03.600Z,14.10
2022-11-05T02:45:43.229Z,15.45
2022-11-05T02:48:18.882Z,14.38
2022-11-05T02:50:55.203Z,13.35
2022-11-05T02:53:33.646Z,13.15
2022-11-05T02:56:04.642Z,13.57
2022-11-05T02:58:35.027Z,12.98
2022-11-05T03:01:06.765Z,12.88
2022-11-05T03:03:39.461Z,10.02
2022-11-05T03:06:23.626Z,9.88
2022-11-05T03:09:24.318Z,10.05
2022-11-05T03:12:03.798Z,10.93
2022-11-05T03:14:40.458Z,13.40
2022-11-05T03:17:13.645Z,12.35
2022-11-05T03:19:49.147Z,9.45
2022-11-05T03:22:24.832Z,9.10
2022-11-05T03:24:57.411Z,10.70
2022-11-05T03:27:31.076Z,7.72
2022-11-05T03:30:02.758Z,8.98
2022-11-05T03:32:33.748Z,8.82
2022-11-05T03:35:06.304Z,10.95
2022-11-05T03:37:38.375Z,7.05
2022-11-05T03:40:10.297Z,8.80
2022-11-05T03:42:41.820Z,5.72
2022-11-05T03:45:15.555Z,8.20
2022-11-05T03:47:47.246Z,5.43
2022-11-05T03:50:22.547Z,6.13
2022-11-05T03:52:54.285Z,5.07
2022-11-05T03:55:27.453Z,6.32
2022-11-05T03:57:57.070Z,5.75
2022-11-05T04:00:24.902Z,5.25
2022-11-05T04:02:52.940Z,7.13
2022-11-05T04:05:22.278Z,5.82
2022-11-05T04:08:11.475Z,5.53
2022-11-05T04:11:01.435Z,6.10
2022-11-05T04:13:29.405Z,5.03
2022-11-05T04:16:15.341Z,6.65
2022-11-05T04:18:43.755Z,6.50
2022-11-05T04:21:30.381Z,5.28
2022-11-05T04:24:10.491Z,5.85
2022-11-05T04:26:40.100Z,4.95
2022-11-05T04:29:25.685Z,4.55
2022-11-05T04:31:53.585Z,5.10
2022-11-05T04:34:22.578Z,6.57
2022-11-05T04:36:53.090Z,4.10
2022-11-05T04:39:21.900Z,3.67
2022-11-05T04:41:49.573Z,5.07
2022-11-05T04:44:17.695Z,5.60
2022-11-05T04:46:45.501Z,3.20
2022-11-05T04:49:13.462Z,4.85
2022-11-05T04:51:41.060Z,3.65
2022-11-05T04:54:10.072Z,2.88
2022-11-05T04:56:38.015Z,4.35
2022-11-05T04:59:05.669Z,4.10
2022-11-05T05:01:33.801Z,4.20
2022-11-05T05:04:01.580Z,4.63
2022-11-05T05:06:29.196Z,4.53
2022-11-05T05:08:56.827Z,5.85
2022-11-05T05:11:26.072Z,4.40
2022-11-05T05:13:53.668Z,2.90
2022-11-05T05:16:23.345Z,3.45
2022-11-05T05:18:51.668Z,2.92
2022-11-05T05:21:38.587Z,3.63
2022-11-05T05:24:08.759Z,3.50
2022-11-05T05:26:39.389Z,3.60
2022-11-05T05:29:07.893Z,2.80
2022-11-05T05:31:35.863Z,3.42
2022-11-05T05:34:03.818Z,3.90
2022-11-05T05:36:31.885Z,3.58
2022-11-05T05:38:59.936Z,5.88
2022-11-05T05:41:27.625Z,5.43
2022-11-05T05:43:56.610Z,4.75
2022-11-05T05:46:24.275Z,6.70
2022-11-05T05:48:53.110Z,4.60
2022-11-05T05:51:21.112Z,7.63
2022-11-05T05:53:48.736Z,7.07
2022-11-05T05:56:19.235Z,9.48
2022-11-05T05:58:47.637Z,9.35
2022-11-05T06:01:19.721Z,8.27
2022-11-05T06:03:48.250Z,7.82
2022-11-05T06:06:19.811Z,7.35
2022-11-05T06:08:47.958Z,7.15
2022-11-05T06:11:15.643Z,8.90
2022-11-05T06:13:43.340Z,8.70
2022-11-05T06:16:11.535Z,7.88
2022-11-05T06:18:40.735Z,7.47
2022-11-05T06:21:10.733Z,7.78
2022-11-05T06:23:39.941Z,7.43
2022-11-05T06:26:10.043Z,6.47
2022-11-05T06:28:37.785Z,8.98
2022-11-05T06:31:06.281Z,5.63
2022-11-05T06:33:34.621Z,5.38
2022-11-05T06:36:06.500Z,5.13
2022-11-05T06:38:35.434Z,5.40
2022-11-05T06:41:09.002Z,7.85
2022-11-05T06:43:38.978Z,8.75
2022-11-05T06:46:07.205Z,6.07
2022-11-05T06:48:35.928Z,6.18
2022-11-05T06:51:05.708Z,6.50
2022-11-05T06:53:33.484Z,6.28
2022-11-05T06:56:03.868Z,5.90
2022-11-05T06:58:32.023Z,7.85
2022-11-05T07:01:04.282Z,11.55
2022-11-05T07:03:32.356Z,8.90
2022-11-05T07:06:01.128Z,7.68
2022-11-05T07:08:32.548Z,8.13
2022-11-05T07:11:00.744Z,10.20
2022-11-05T07:13:28.452Z,9.60
2022-11-05T07:15:56.526Z,37.45
2022-11-05T07:18:24.557Z,13.77
2022-11-05T07:20:52.264Z,12.18
2022-11-05T07:23:20.012Z,12.13
2022-11-05T07:25:49.088Z,13.70
2022-11-05T07:28:17.024Z,13.15
2022-11-05T07:30:44.714Z,16.15
2022-11-05T07:33:13.208Z,9.93
2022-11-05T07:35:41.635Z,11.98
2022-11-05T07:38:09.696Z,11.20
2022-11-05T07:40:37.444Z,10.75
2022-11-05T07:43:06.434Z,10.25
2022-11-05T07:45:34.062Z,13.75
2022-11-05T07:48:02.965Z,10.90
2022-11-05T07:50:32.872Z,10.57
2022-11-05T07:53:02.031Z,9.65
2022-11-05T07:55:30.117Z,11.60
2022-11-05T07:57:57.873Z,9.45
2022-11-05T08:00:28.067Z,9.25
2022-11-05T08:03:07.125Z,12.63
2022-11-05T08:05:37.875Z,11.05
2022-11-05T08:08:11.052Z,11.88
2022-11-05T08:10:39.503Z,42.40
2022-11-05T08:13:33.102Z,18.15
2022-11-05T08:16:02.443Z,10.77
2022-11-05T08:18:32.272Z,10.77
2022-11-05T08:21:01.432Z,9.63
2022-11-05T08:23:30.213Z,8.77
2022-11-05T08:25:58.614Z,8.48
2022-11-05T08:28:27.489Z,8.75
2022-11-05T08:30:57.182Z,10.95
2022-11-05T08:33:27.429Z,7.95
2022-11-05T08:35:55.953Z,10.02
2022-11-05T08:38:23.638Z,7.75
2022-11-05T08:40:57.413Z,8.93
2022-11-05T08:43:25.478Z,9.80
2022-11-05T08:45:54.906Z,11.80
2022-11-05T08:48:22.519Z,7.97
2022-11-05T08:50:51.653Z,8.50
2022-11-05T08:53:19.622Z,7.85
2022-11-05T08:55:49.983Z,7.35
2022-11-05T08:58:17.897Z,7.35
2022-11-05T09:00:46.974Z,8.82
2022-11-05T09:03:16.303Z,7.38
2022-11-05T09:05:44.656Z,6.80
2022-11-05T09:08:16.085Z,10.45
2022-11-05T09:10:44.692Z,7.20
2022-11-05T09:13:18.292Z,10.02
2022-11-05T09:15:47.161Z,8.13
2022-11-05T09:18:15.974Z,8.02
2022-11-05T09:20:44.144Z,6.53
2022-11-05T09:23:15.096Z,9.35
2022-11-05T09:25:42.947Z,7.40
2022-11-05T09:28:16.521Z,16.45
2022-11-05T09:30:47.385Z,23.67
2022-11-05T09:33:15.662Z,8.80
2022-11-05T09:35:43.847Z,7.88
2022-11-05T09:38:13.587Z,7.68
2022-11-05T09:40:45.679Z,8.23
2022-11-05T09:43:20.213Z,9.23
2022-11-05T09:45:50.579Z,8.77
2022-11-05T09:48:21.508Z,7.95
2022-11-05T09:50:51.136Z,8.77
2022-11-05T09:53:23.546Z,8.55
2022-11-05T09:55:54.520Z,7.60
2022-11-05T09:58:31.981Z,5.95
2022-11-05T10:01:00.214Z,7.13
2022-11-05T10:03:30.969Z,7.65
2022-11-05T10:06:08.241Z,7.35
2022-11-05T10:08:42.570Z,7.15
2022-11-05T10:11:16.755Z,6.82
2022-11-05T10:13:48.695Z,7.38
2022-11-05T10:16:24.451Z,4.88
2022-11-05T10:18:58.153Z,9.05
2022-11-05T10:21:51.386Z,16.13
2022-11-05T10:24:17.274Z,7.80
2022-11-05T10:26:48.956Z,10.15
2022-11-05T10:29:23.764Z,8.93
2022-11-05T10:31:54.427Z,8.02
2022-11-05T10:34:24.884Z,5.32
2022-11-05T10:36:54.179Z,5.18
2022-11-05T10:39:24.295Z,4.55
2022-11-05T10:42:17.066Z,5.07
2022-11-05T10:44:51.446Z,6.72
2022-11-05T10:47:45.609Z,7.85
2022-11-05T10:50:17.736Z,8.95
2022-11-05T10:52:56.449Z,6.97
2022-11-05T10:55:28.510Z,5.93
2022-11-05T10:58:07.514Z,5.45
2022-11-05T11:00:35.367Z,5.97
2022-11-05T11:03:05.596Z,4.97
2022-11-05T11:05:36.040Z,6.15
2022-11-05T11:08:20.421Z,5.35
2022-11-05T11:10:52.735Z,5.40
2022-11-05T11:13:22.721Z,6.93
2022-11-05T11:15:51.014Z,7.13
2022-11-05T11:18:26.852Z,4.28
2022-11-05T11:20:54.546Z,6.05
2022-11-05T11:23:22.402Z,5.63
2022-11-05T11:25:54.898Z,6.03
2022-11-05T11:28:25.385Z,4.88
2022-11-05T11:30:57.361Z,5.03
2022-11-05T11:33:28.475Z,6.88
2022-11-05T11:35:57.811Z,7.90
2022-11-05T11:38:26.570Z,4.13
2022-11-05T11:41:06.631Z,4.53
2022-11-05T11:43:38.274Z,12.27
2022-11-05T11:46:15.230Z,8.02
2022-11-05T11:48:47.378Z,7.40
2022-11-05T11:51:21.009Z,3.28
2022-11-05T11:53:50.238Z,5.57
2022-11-05T11:56:21.126Z,4.90
2022-11-05T11:58:51.054Z,5.32
2022-11-05T12:01:35.508Z,4.05
2022-11-05T12:04:18.955Z,5.90
2022-11-05T12:06:52.817Z,5.85
2022-11-05T12:09:30.501Z,7.20
2022-11-05T12:12:06.358Z,4.35
2022-11-05T12:14:46.048Z,14.05
2022-11-05T12:17:30.767Z,4.22
2022-11-05T12:20:23.192Z,5.95
2022-11-05T12:23:08.477Z,2.90
2022-11-05T12:25:43.793Z,3.72
2022-11-05T12:28:26.454Z,6.32
2022-11-05T12:31:01.261Z,5.43
2022-11-05T12:33:42.961Z,5.70
2022-11-05T12:36:21.995Z,4.00
2022-11-05T12:39:19.925Z,5.40
2022-11-05T12:41:55.918Z,2.92
2022-11-05T12:44:38.584Z,5.07
2022-11-05T12:47:21.781Z,3.13
2022-11-05T12:50:02.898Z,3.65
2022-11-05T12:52:51.945Z,3.20
2022-11-05T12:55:22.935Z,7.88
2022-11-05T12:57:54.612Z,5.22
2022-11-05T13:00:25.713Z,4.07
2022-11-05T13:02:57.489Z,6.15
2022-11-05T13:05:35.138Z,5.25
2022-11-05T13:08:10.390Z,2.83
2022-11-05T13:10:42.396Z,4.53
2022-11-05T13:13:15.645Z,2.70
2022-11-05T13:15:51.761Z,3.97
2022-11-05T13:18:24.856Z,5.60
2022-11-05T13:20:54.981Z,3.80
2022-11-05T13:23:30.584Z,7.80
2022-11-05T13:26:04.336Z,3.45
2022-11-05T13:28:39.467Z,5.63
2022-11-05T13:31:14.990Z,3.47
2022-11-05T13:33:45.357Z,5.03
2022-11-05T13:36:34.083Z,3.80
2022-11-05T13:39:15.112Z,5.22
2022-11-05T13:42:07.180Z,6.32
2022-11-05T13:45:07.665Z,4.47
2022-11-05T13:47:58.068Z,7.65
2022-11-05T13:50:50.216Z,5.35
2022-11-05T13:53:51.624Z,5.28
2022-11-05T13:56:32.456Z,6.15
2022-11-05T13:59:18.847Z,5.63
2022-11-05T14:01:51.449Z,7.82
2022-11-05T14:04:29.792Z,6.82
2022-11-05T14:07:08.611Z,4.45
2022-11-05T14:09:37.924Z,6.53
2022-11-05T14:12:08.427Z,5.65
2022-11-05T14:14:44.694Z,5.93
2022-11-05T14:17:17.740Z,6.70
2022-11-05T14:20:09.697Z,6.07
2022-11-05T14:22:40.386Z,7.18
2022-11-05T14:26:00.695Z,8.98
2022-11-05T14:28:39.978Z,8.40
2022-11-05T14:31:41.024Z,9.40
2022-11-05T14:34:25.221Z,8.02
2022-11-05T14:37:26.317Z,9.88
2022-11-05T14:39:55.528Z,12.40
2022-11-05T14:42:29.486Z,8.38
2022-11-05T14:45:01.884Z,8.90
2022-11-05T14:47:32.771Z,11.55
2022-11-05T14:50:04.485Z,9.02
2022-11-05T14:52:34.071Z,7.20
2022-11-05T14:55:01.891Z,9.63
2022-11-05T14:58:17.372Z,8.30
2022-11-05T15:00:50.298Z,9.38
2022-11-05T15:03:41.155Z,9.73
2022-11-05T15:06:24.858Z,8.63
2022-11-05T15:09:06.073Z,11.30
2022-11-05T15:11:38.523Z,10.90
2022-11-05T15:14:13.941Z,9.77
2022-11-05T15:16:44.150Z,8.50
2022-11-05T15:19:21.340Z,9.02
2022-11-05T15:21:50.290Z,10.43
2022-11-05T15:24:21.169Z,9.25
2022-11-05T15:26:55.357Z,8.57
2022-11-05T15:29:27.400Z,10.20
2022-11-05T15:31:55.762Z,9.35
2022-11-05T15:34:25.914Z,9.50
2022-11-05T15:36:56.017Z,8.27
2022-11-05T15:39:31.614Z,7.90
2022-11-05T15:42:02.159Z,12.93
2022-11-05T15:44:32.008Z,11.48
2022-11-05T15:47:13.992Z,9.80
2022-11-05T15:49:43.376Z,12.77
2022-11-05T15:52:13.876Z,10.60
2022-11-05T15:54:43.429Z,8.88
2022-11-05T15:57:23.556Z,11.98
2022-11-05T15:59:51.484Z,16.25
2022-11-05T16:02:32.819Z,12.48
2022-11-05T16:05:06.588Z,13.18
2022-11-05T16:07:34.863Z,9.45
2022-11-05T16:10:10.036Z,12.73
2022-11-05T16:12:40.496Z,11.05
2022-11-05T16:15:24.021Z,10.40
2022-11-05T16:17:56.357Z,13.52
2022-11-05T16:20:30.805Z,15.65
2022-11-05T16:23:00.546Z,12.35
2022-11-05T16:25:38.370Z,13.15
2022-11-05T16:28:19.795Z,9.63
2022-11-05T16:30:56.958Z,9.60
2022-11-05T16:33:26.239Z,7.32
2022-11-05T16:35:54.382Z,15.02
2022-11-05T16:38:22.865Z,10.13
2022-11-05T16:40:52.049Z,10.18
2022-11-05T16:43:22.144Z,7.80
2022-11-05T16:45:50.673Z,11.73
2022-11-05T16:48:18.385Z,8.93
2022-11-05T16:50:47.140Z,10.27
2022-11-05T16:53:15.238Z,12.48
2022-11-05T16:55:44.819Z,11.90
2022-11-05T16:58:20.476Z,10.02
2022-11-05T17:00:49.364Z,14.02
2022-11-05T17:03:17.232Z,13.52
2022-11-05T17:05:45.454Z,10.57
2022-11-05T17:08:13.756Z,12.65
2022-11-05T17:10:41.760Z,11.45
2022-11-05T17:13:12.522Z,9.43
2022-11-05T17:15:44.733Z,10.90
2022-11-05T17:18:18.108Z,14.00
2022-11-05T17:20:49.018Z,9.85
2022-11-05T17:23:18.720Z,9.93
2022-11-05T17:25:49.118Z,10.73
2022-11-05T17:28:17.569Z,12.10
2022-11-05T17:30:52.385Z,11.38
2022-11-05T17:33:22.448Z,9.43
2022-11-05T17:35:50.805Z,9.02
2022-11-05T17:38:18.505Z,12.18
2022-11-05T17:40:46.405Z,8.30
2022-11-05T17:43:15.441Z,9.07
2022-11-05T17:45:46.661Z,10.77
2022-11-05T17:48:14.885Z,12.02
2022-11-05T17:50:43.685Z,12.13
2022-11-05T17:53:12.379Z,9.05
2022-11-05T17:55:41.544Z,11.60
2022-11-05T17:58:09.670Z,13.05
2022-11-05T18:00:38.763Z,10.30
2022-11-05T18:03:07.760Z,11.13
2022-11-05T18:05:35.856Z,13.90
2022-11-05T18:08:03.972Z,12.65
2022-11-05T18:10:32.066Z,11.63
2022-11-05T18:13:00.219Z,8.02
2022-11-05T18:15:27.873Z,12.95
2022-11-05T18:17:55.513Z,13.77
2022-11-05T18:20:25.118Z,9.48
2022-11-05T18:22:53.257Z,13.80
2022-11-05T18:25:21.002Z,10.93
2022-11-05T18:27:48.687Z,9.40
2022-11-05T18:30:16.403Z,9.07
2022-11-05T18:32:44.499Z,11.23
2022-11-05T18:35:13.465Z,11.60
2022-11-05T18:37:42.624Z,11.65
2022-11-05T18:40:11.216Z,12.00
2022-11-05T18:42:39.181Z,13.68
2022-11-05T18:45:08.016Z,18.83
2022-11-05T18:47:35.945Z,14.32
2022-11-05T18:50:05.371Z,15.18
2022-11-05T18:52:33.762Z,14.98
2022-11-05T18:55:02.989Z,13.40
2022-11-05T18:57:31.048Z,13.93
2022-11-05T18:59:58.873Z,15.93
2022-11-05T19:02:26.954Z,16.50
2022-11-05T19:05:26.692Z,19.17
2022-11-05T19:07:43.175Z,18.08
2022-11-05T19:10:12.501Z,17.65
2022-11-05T19:12:40.455Z,15.25
2022-11-05T19:15:09.395Z,15.20
2022-11-05T19:17:37.647Z,17.88
2022-11-05T19:20:07.027Z,14.63
2022-11-05T19:22:34.796Z,16.30
2022-11-05T19:25:03.757Z,14.93
2022-11-05T19:27:32.890Z,16.08
2022-11-05T19:30:01.366Z,14.88
2022-11-05T19:32:29.126Z,16.92
2022-11-05T19:34:57.040Z,13.70
2022-11-05T19:37:24.743Z,15.35
2022-11-05T19:39:52.497Z,14.63
2022-11-05T19:42:20.318Z,14.23
2022-11-05T19:44:49.405Z,13.98
2022-11-05T19:47:17.150Z,16.55
2022-11-05T19:49:45.018Z,19.70
2022-11-05T19:52:12.774Z,15.63
2022-11-05T19:54:40.828Z,17.58
2022-11-05T19:57:08.556Z,17.98
2022-11-05T19:59:36.273Z,14.68
2022-11-05T20:02:06.057Z,19.00
2022-11-05T20:04:34.609Z,17.65
2022-11-05T20:07:02.405Z,14.40
2022-11-05T20:09:30.131Z,15.30
2022-11-05T20:11:57.941Z,16.05
2022-11-05T20:14:26.641Z,15.95
2022-11-05T20:16:54.761Z,18.17
2022-11-05T20:19:24.577Z,16.33
2022-11-05T20:21:52.852Z,17.67
2022-11-05T20:24:25.350Z,18.65
2022-11-05T20:26:54.058Z,17.92
2022-11-05T20:29:22.977Z,19.90
2022-11-05T20:31:51.133Z,23.52
2022-11-05T20:34:18.926Z,24.30
2022-11-05T20:36:48.103Z,18.75
2022-11-05T20:39:16.327Z,16.75
2022-11-05T20:41:44.151Z,20.00
2022-11-05T20:44:12.006Z,14.25
2022-11-05T20:46:39.773Z,20.02
2022-11-05T20:49:07.481Z,17.65
2022-11-05T20:51:35.197Z,16.90
2022-11-05T20:54:05.318Z,19.17
2022-11-05T20:56:35.760Z,15.27
2022-11-05T20:59:04.051Z,17.33
2022-11-05T21:01:33.982Z,14.98
2022-11-05T21:04:02.834Z,12.60
2022-11-05T21:06:30.982Z,16.98
2022-11-05T21:08:58.926Z,15.68
2022-11-05T21:11:28.094Z,16.00
2022-11-05T21:13:55.838Z,18.13
2022-11-05T21:16:23.574Z,16.85
2022-11-05T21:18:51.509Z,19.25
2022-11-05T21:21:21.457Z,14.90
2022-11-05T21:23:49.283Z,17.05
2022-11-05T21:26:18.543Z,13.70
2022-11-05T21:28:47.619Z,14.45
2022-11-05T21:31:15.394Z,14.07
2022-11-05T21:33:43.153Z,13.32
2022-11-05T21:36:12.688Z,17.75
2022-11-05T21:38:41.417Z,14.43
2022-11-05T21:41:10.865Z,16.95
2022-11-05T21:43:40.476Z,12.52
2022-11-05T21:46:13.000Z,12.45
2022-11-05T21:48:40.738Z,11.73
2022-11-05T21:51:27.804Z,13.88
2022-11-05T21:54:13.338Z,11.98
2022-11-05T21:56:55.187Z,16.98
2022-11-05T21:59:42.807Z,14.93
2022-11-05T22:02:14.353Z,12.68
2022-11-05T22:04:44.575Z,11.43
2022-11-05T22:07:14.201Z,12.38
2022-11-05T22:09:41.970Z,13.98
2022-11-05T22:12:11.763Z,18.08
2022-11-05T22:14:39.852Z,14.35
2022-11-05T22:17:08.529Z,13.75
2022-11-05T22:19:37.709Z,11.13
2022-11-05T22:22:06.549Z,13.82
2022-11-05T22:24:35.603Z,11.50
2022-11-05T22:27:05.607Z,17.30
2022-11-05T22:29:33.276Z,11.90
2022-11-05T22:32:01.030Z,11.07
2022-11-05T22:34:28.735Z,10.77
2022-11-05T22:36:57.775Z,12.98
2022-11-05T22:39:25.925Z,10.95
2022-11-05T22:41:54.970Z,10.30
2022-11-05T22:44:23.028Z,13.23
2022-11-05T22:46:51.089Z,10.32
2022-11-05T22:49:19.301Z,11.07
2022-11-05T22:51:47.161Z,9.63
2022-11-05T22:54:16.629Z,11.05
2022-11-05T22:56:44.733Z,13.35
2022-11-05T22:59:14.865Z,10.52
2022-11-05T23:01:43.199Z,12.80
2022-11-05T23:04:11.369Z,14.07
2022-11-05T23:06:56.461Z,13.38
2022-11-05T23:09:45.276Z,11.85
2022-11-05T23:12:22.668Z,12.85
2022-11-05T23:14:50.690Z,10.30
2022-11-05T23:17:35.905Z,13.30
2022-11-05T23:20:24.333Z,13.35
2022-11-05T23:23:09.804Z,14.80
2022-11-05T23:25:38.751Z,14.73
2022-11-05T23:28:10.248Z,28.85
2022-11-05T23:31:00.049Z,41.03
2022-11-05T23:33:27.765Z,15.65
2022-11-05T23:36:13.586Z,14.77
2022-11-05T23:38:41.245Z,13.48
2022-11-05T23:41:27.892Z,11.68
2022-11-05T23:44:12.983Z,11.30
2022-11-05T23:46:58.412Z,16.60
2022-11-05T23:49:26.825Z,13.57
2022-11-05T23:51:54.489Z,12.52
2022-11-05T23:54:22.899Z,11.13
2022-11-05T23:56:52.222Z,13.25
2022-11-05T23:59:20.107Z,17.27
